createdAt,value
2018-03-20T00:00:16.030Z,-3.00
2018-03-20T00:01:18.549Z,-3.00
2018-03-20T00:02:21.124Z,-3.00
2018-03-20T00:03:24.413Z,-3.00
2018-03-20T00:04:27.750Z,-3.00
2018-03-20T00:05:30.271Z,-3.00
2018-03-20T00:06:33.559Z,-3.00
2018-03-20T00:07:36.083Z,-3.00
2018-03-20T00:08:38.614Z,-3.00
2018-03-20T00:09:41.168Z,-2.90
2018-03-20T00:10:43.690Z,-3.00
2018-03-20T00:11:46.234Z,-3.00
2018-03-20T00:12:48.759Z,-3.10
2018-03-20T00:13:51.325Z,-3.10
2018-03-20T00:14:53.893Z,-3.10
2018-03-20T00:15:56.420Z,-3.10
2018-03-20T00:16:58.945Z,-3.20
2018-03-20T00:18:01.469Z,-3.20
2018-03-20T00:19:04.774Z,-3.20
2018-03-20T00:20:07.342Z,-3.20
2018-03-20T00:21:09.910Z,-3.20
2018-03-20T00:22:12.438Z,-3.20
2018-03-20T00:23:14.966Z,-3.20
2018-03-20T00:24:17.507Z,-3.20
2018-03-20T00:25:20.027Z,-3.20
2018-03-20T00:26:22.587Z,-3.20
2018-03-20T00:27:25.150Z,-3.30
2018-03-20T00:28:27.673Z,-3.30
2018-03-20T00:29:30.208Z,-3.30
2018-03-20T00:30:32.729Z,-3.30
2018-03-20T00:31:35.313Z,-3.30
2018-03-20T00:32:37.833Z,-3.40
2018-03-20T00:33:40.370Z,-3.40
2018-03-20T00:34:42.910Z,-3.40
2018-03-20T00:35:45.438Z,-3.50
2018-03-20T00:36:47.994Z,-3.50
2018-03-20T00:37:51.291Z,-3.50
2018-03-20T00:38:53.839Z,-3.50
2018-03-20T00:39:56.357Z,-3.40
2018-03-20T00:40:58.890Z,-3.40
2018-03-20T00:42:01.454Z,-3.40
2018-03-20T00:43:03.994Z,-3.30
2018-03-20T00:44:06.577Z,-3.30
2018-03-20T00:45:09.898Z,-3.40
2018-03-20T00:46:12.410Z,-3.40
2018-03-20T00:47:14.946Z,-3.30
2018-03-20T00:48:17.589Z,-3.40
2018-03-20T00:49:20.110Z,-3.40
2018-03-20T00:50:22.638Z,-3.40
2018-03-20T00:51:25.965Z,-3.40
2018-03-20T00:52:29.274Z,-3.40
2018-03-20T00:53:31.808Z,-3.40
2018-03-20T00:54:34.344Z,-3.40
2018-03-20T00:55:36.868Z,-3.40
2018-03-20T00:56:39.443Z,-3.50
2018-03-20T00:57:41.977Z,-3.50
2018-03-20T00:58:45.273Z,-3.50
2018-03-20T00:59:48.574Z,-3.50
2018-03-20T01:00:51.108Z,-3.50
2018-03-20T01:01:54.442Z,-3.60
2018-03-20T01:02:56.957Z,-3.60
2018-03-20T01:03:59.478Z,-3.50
2018-03-20T01:05:02.018Z,-3.50
2018-03-20T01:06:04.553Z,-3.50
2018-03-20T01:07:07.180Z,-3.60
2018-03-20T01:08:09.712Z,-3.60
2018-03-20T01:09:12.259Z,-3.60
2018-03-20T01:10:15.609Z,-3.50
2018-03-20T01:11:18.177Z,-3.50
2018-03-20T01:12:20.701Z,-3.60
2018-03-20T01:13:23.222Z,-3.60
2018-03-20T01:14:25.755Z,-3.70
2018-03-20T01:15:28.300Z,-3.60
2018-03-20T01:16:30.816Z,-3.70
2018-03-20T01:17:33.383Z,-3.60
2018-03-20T01:18:35.891Z,-3.60
2018-03-20T01:19:38.411Z,-3.60
2018-03-20T01:20:40.986Z,-3.60
2018-03-20T01:21:43.498Z,-3.60
2018-03-20T01:22:46.017Z,-3.60
2018-03-20T01:23:48.546Z,-3.70
2018-03-20T01:24:51.074Z,-3.70
2018-03-20T01:25:54.411Z,-3.70
2018-03-20T01:26:56.950Z,-3.70
2018-03-20T01:27:59.477Z,-3.70
2018-03-20T01:29:02.046Z,-3.70
2018-03-20T01:30:04.584Z,-3.70
2018-03-20T01:31:07.138Z,-3.70
2018-03-20T01:32:09.657Z,-3.70
2018-03-20T01:33:12.992Z,-3.80
2018-03-20T01:34:15.512Z,-3.80
2018-03-20T01:35:18.792Z,-3.80
2018-03-20T01:36:22.102Z,-3.80
2018-03-20T01:37:24.644Z,-3.80
2018-03-20T01:38:27.988Z,-3.80
2018-03-20T01:39:30.512Z,-3.80
2018-03-20T01:40:33.028Z,-3.70
2018-03-20T01:41:35.602Z,-3.80
2018-03-20T01:42:38.124Z,-3.80
2018-03-20T01:43:40.685Z,-3.80
2018-03-20T01:44:43.225Z,-3.80
2018-03-20T01:45:46.568Z,-3.80
2018-03-20T01:46:49.096Z,-3.80
2018-03-20T01:47:51.619Z,-3.80
2018-03-20T01:48:54.138Z,-3.80
2018-03-20T01:49:56.664Z,-3.70
2018-03-20T01:50:59.221Z,-3.70
2018-03-20T01:52:01.742Z,-3.80
2018-03-20T01:53:16.011Z,-3.80
2018-03-20T01:54:18.535Z,-3.70
2018-03-20T01:55:21.055Z,-3.70
2018-03-20T01:56:23.613Z,-3.80
2018-03-20T01:57:26.176Z,-3.90
2018-03-20T01:58:28.709Z,-3.90
2018-03-20T01:59:31.262Z,-3.90
2018-03-20T02:00:33.783Z,-3.80
2018-03-20T02:01:36.311Z,-3.90
2018-03-20T02:02:38.873Z,-3.90
2018-03-20T02:03:41.393Z,-4.00
2018-03-20T02:04:43.934Z,-4.00
2018-03-20T02:05:46.477Z,-4.00
2018-03-20T02:06:48.999Z,-4.00
2018-03-20T02:07:51.589Z,-4.10
2018-03-20T02:08:54.117Z,-4.20
2018-03-20T02:09:56.634Z,-4.20
2018-03-20T02:10:59.172Z,-4.20
2018-03-20T02:12:02.518Z,-4.20
2018-03-20T02:13:05.119Z,-4.30
2018-03-20T02:14:07.657Z,-4.20
2018-03-20T02:15:10.186Z,-4.20
2018-03-20T02:16:12.721Z,-4.20
2018-03-20T02:17:16.024Z,-4.20
2018-03-20T02:18:18.586Z,-4.20
2018-03-20T02:19:21.102Z,-4.20
2018-03-20T02:20:23.613Z,-4.20
2018-03-20T02:21:26.131Z,-4.20
2018-03-20T02:22:28.650Z,-4.10
2018-03-20T02:23:31.227Z,-4.10
2018-03-20T02:24:33.746Z,-4.00
2018-03-20T02:25:36.278Z,-4.00
2018-03-20T02:26:38.831Z,-3.90
2018-03-20T02:27:41.355Z,-3.80
2018-03-20T02:28:43.886Z,-3.80
2018-03-20T02:29:46.422Z,-3.70
2018-03-20T02:30:48.955Z,-3.70
2018-03-20T02:31:52.295Z,-3.80
2018-03-20T02:32:54.818Z,-3.80
2018-03-20T02:33:57.354Z,-3.80
2018-03-20T02:34:59.893Z,-3.70
2018-03-20T02:36:02.409Z,-3.70
2018-03-20T02:37:05.745Z,-3.70
2018-03-20T02:38:08.269Z,-3.80
2018-03-20T02:39:11.581Z,-3.80
2018-03-20T02:40:14.113Z,-3.80
2018-03-20T02:41:17.510Z,-3.90
2018-03-20T02:42:20.065Z,-3.90
2018-03-20T02:43:23.351Z,-3.90
2018-03-20T02:44:26.686Z,-3.90
2018-03-20T02:45:29.214Z,-3.90
2018-03-20T02:46:34.607Z,-3.80
2018-03-20T02:47:37.126Z,-3.90
2018-03-20T02:48:39.684Z,-3.80
2018-03-20T02:49:42.207Z,-3.70
2018-03-20T02:50:44.733Z,-3.70
2018-03-20T02:51:47.269Z,-3.70
2018-03-20T02:52:49.823Z,-3.70
2018-03-20T02:53:53.151Z,-3.70
2018-03-20T02:54:55.688Z,-3.70
2018-03-20T02:55:58.225Z,-3.60
2018-03-20T02:57:00.748Z,-3.60
2018-03-20T02:58:03.294Z,-3.50
2018-03-20T02:59:05.844Z,-3.60
2018-03-20T03:00:09.164Z,-3.60
2018-03-20T03:01:11.684Z,-3.60
2018-03-20T03:02:14.205Z,-3.50
2018-03-20T03:03:16.733Z,-3.50
2018-03-20T03:04:19.324Z,-3.50
2018-03-20T03:05:21.894Z,-3.50
2018-03-20T03:06:24.416Z,-3.40
2018-03-20T03:07:26.933Z,-3.40
2018-03-20T03:08:29.476Z,-3.30
2018-03-20T03:09:32.057Z,-3.30
2018-03-20T03:10:35.355Z,-3.10
2018-03-20T03:11:37.882Z,-3.10
2018-03-20T03:12:41.171Z,-3.00
2018-03-20T03:13:43.692Z,-3.00
2018-03-20T03:14:46.265Z,-2.90
2018-03-20T03:15:48.814Z,-2.90
2018-03-20T03:16:51.330Z,-2.90
2018-03-20T03:17:54.665Z,-2.80
2018-03-20T03:18:57.190Z,-2.90
2018-03-20T03:19:59.711Z,-2.80
2018-03-20T03:21:02.230Z,-2.80
2018-03-20T03:22:04.747Z,-2.70
2018-03-20T03:23:07.331Z,-2.60
2018-03-20T03:24:10.627Z,-2.60
2018-03-20T03:25:13.911Z,-2.50
2018-03-20T03:26:16.445Z,-2.60
2018-03-20T03:27:19.098Z,-2.50
2018-03-20T03:28:21.650Z,-2.60
2018-03-20T03:29:24.205Z,-2.60
2018-03-20T03:30:26.773Z,-2.50
2018-03-20T03:31:29.309Z,-2.50
2018-03-20T03:32:32.597Z,-2.60
2018-03-20T03:33:35.161Z,-2.60
2018-03-20T03:34:38.448Z,-2.50
2018-03-20T03:35:40.980Z,-2.50
2018-03-20T03:36:43.552Z,-2.50
2018-03-20T03:37:46.070Z,-2.50
2018-03-20T03:38:48.647Z,-2.40
2018-03-20T03:39:51.178Z,-2.40
2018-03-20T03:40:54.501Z,-2.40
2018-03-20T03:41:57.036Z,-2.40
2018-03-20T03:42:59.556Z,-2.40
2018-03-20T03:44:02.093Z,-2.40
2018-03-20T03:45:04.630Z,-2.40
2018-03-20T03:46:07.197Z,-2.40
2018-03-20T03:47:09.730Z,-2.40
2018-03-20T03:48:12.249Z,-2.40
2018-03-20T03:49:14.785Z,-2.50
2018-03-20T03:50:18.110Z,-2.40
2018-03-20T03:51:20.691Z,-2.40
2018-03-20T03:52:26.076Z,-2.40
2018-03-20T03:53:29.374Z,-2.30
2018-03-20T03:54:31.925Z,-2.30
2018-03-20T03:55:35.222Z,-2.20
2018-03-20T03:56:37.740Z,-2.30
2018-03-20T03:57:40.269Z,-2.20
2018-03-20T03:58:42.847Z,-2.20
2018-03-20T03:59:45.377Z,-2.20
2018-03-20T04:00:48.661Z,-2.20
2018-03-20T04:01:51.997Z,-2.20
2018-03-20T04:02:54.517Z,-2.20
2018-03-20T04:03:57.043Z,-2.10
2018-03-20T04:04:59.562Z,-2.10
2018-03-20T04:06:02.122Z,-2.10
2018-03-20T04:07:04.644Z,-2.10
2018-03-20T04:08:07.162Z,-2.10
2018-03-20T04:09:09.990Z,-2.00
2018-03-20T04:10:12.513Z,-2.00
2018-03-20T04:11:15.067Z,-2.00
2018-03-20T04:12:17.625Z,-2.10
2018-03-20T04:13:20.144Z,-2.00
2018-03-20T04:14:22.682Z,-2.00
2018-03-20T04:15:25.976Z,-2.00
2018-03-20T04:16:28.549Z,-2.00
2018-03-20T04:17:31.058Z,-2.00
2018-03-20T04:18:34.345Z,-2.00
2018-03-20T04:19:37.628Z,-1.90
2018-03-20T04:20:40.922Z,-1.90
2018-03-20T04:21:43.491Z,-2.00
2018-03-20T04:22:46.026Z,-1.90
2018-03-20T04:23:48.546Z,-2.00
2018-03-20T04:24:51.150Z,-2.00
2018-03-20T04:25:53.670Z,-2.00
2018-03-20T04:26:56.216Z,-2.00
2018-03-20T04:27:58.769Z,-1.90
2018-03-20T04:29:02.099Z,-1.90
2018-03-20T04:30:04.631Z,-1.90
2018-03-20T04:31:07.910Z,-1.80
2018-03-20T04:32:11.216Z,-1.70
2018-03-20T04:33:13.732Z,-1.70
2018-03-20T04:34:16.282Z,-1.70
2018-03-20T04:35:18.808Z,-1.70
2018-03-20T04:36:21.374Z,-1.70
2018-03-20T04:37:23.954Z,-1.70
2018-03-20T04:38:26.476Z,-1.70
2018-03-20T04:39:28.996Z,-1.70
2018-03-20T04:40:31.701Z,-1.70
2018-03-20T04:41:34.262Z,-1.70
2018-03-20T04:42:36.797Z,-1.60
2018-03-20T04:43:39.317Z,-1.60
2018-03-20T04:44:41.833Z,-1.60
2018-03-20T04:45:44.396Z,-1.60
2018-03-20T04:46:46.926Z,-1.60
2018-03-20T04:47:50.218Z,-1.50
2018-03-20T04:48:52.859Z,-1.50
2018-03-20T04:49:56.253Z,-1.50
2018-03-20T04:50:59.589Z,-1.60
2018-03-20T04:52:02.122Z,-1.60
2018-03-20T04:53:04.641Z,-1.60
2018-03-20T04:54:07.169Z,-1.60
2018-03-20T04:55:09.698Z,-1.70
2018-03-20T04:56:12.248Z,-1.70
2018-03-20T04:57:14.778Z,-1.60
2018-03-20T04:58:17.301Z,-1.60
2018-03-20T04:59:20.665Z,-1.60
2018-03-20T05:00:23.221Z,-1.60
2018-03-20T05:01:25.742Z,-1.60
2018-03-20T05:02:28.302Z,-1.60
2018-03-20T05:03:30.834Z,-1.60
2018-03-20T05:04:33.388Z,-1.60
2018-03-20T05:05:35.902Z,-1.70
2018-03-20T05:06:38.434Z,-1.70
2018-03-20T05:07:41.009Z,-1.70
2018-03-20T05:08:43.545Z,-1.70
2018-03-20T05:09:46.064Z,-1.70
2018-03-20T05:10:49.345Z,-1.80
2018-03-20T05:11:51.873Z,-1.80
2018-03-20T05:12:54.547Z,-1.70
2018-03-20T05:13:57.077Z,-1.70
2018-03-20T05:14:59.610Z,-1.70
2018-03-20T05:16:02.895Z,-1.80
2018-03-20T05:17:06.186Z,-1.80
2018-03-20T05:18:08.734Z,-1.80
2018-03-20T05:19:14.502Z,-1.80
2018-03-20T05:20:22.661Z,-1.80
2018-03-20T05:21:30.790Z,-1.70
2018-03-20T05:22:39.069Z,-1.80
2018-03-20T05:23:47.995Z,-1.80
2018-03-20T05:24:51.316Z,-1.80
2018-03-20T05:25:53.844Z,-1.80
2018-03-20T05:26:57.198Z,-1.80
2018-03-20T05:27:59.721Z,-1.80
2018-03-20T05:29:02.279Z,-1.90
2018-03-20T05:30:04.819Z,-1.90
2018-03-20T05:31:08.096Z,-2.00
2018-03-20T05:32:10.618Z,-2.00
2018-03-20T05:33:13.181Z,-2.10
2018-03-20T05:34:15.697Z,-2.10
2018-03-20T05:35:19.018Z,-2.10
2018-03-20T05:36:21.549Z,-2.10
2018-03-20T05:37:24.189Z,-2.10
2018-03-20T05:38:26.714Z,-2.00
2018-03-20T05:39:29.246Z,-2.10
2018-03-20T05:40:31.768Z,-2.00
2018-03-20T05:41:34.284Z,-2.00
2018-03-20T05:42:37.807Z,-2.00
2018-03-20T05:43:40.332Z,-2.10
2018-03-20T05:44:42.861Z,-2.00
2018-03-20T05:45:45.388Z,-2.00
2018-03-20T05:48:35.686Z,-2.00
2018-03-20T05:49:43.989Z,-2.00
2018-03-20T05:51:07.379Z,-2.10
2018-03-20T05:52:09.913Z,-2.00
2018-03-20T05:53:12.476Z,-2.20
2018-03-20T05:54:14.999Z,-2.10
2018-03-20T05:55:17.561Z,-2.20
2018-03-20T05:56:20.072Z,-2.30
2018-03-20T05:57:22.592Z,-2.30
2018-03-20T05:58:25.169Z,-2.30
2018-03-20T05:59:27.841Z,-2.40
2018-03-20T06:00:30.360Z,-2.40
2018-03-20T06:01:32.897Z,-2.40
2018-03-20T06:02:36.184Z,-2.40
2018-03-20T06:03:39.505Z,-2.40
2018-03-20T06:04:42.051Z,-2.50
2018-03-20T06:05:44.602Z,-2.50
2018-03-20T06:06:47.133Z,-2.40
2018-03-20T06:07:49.667Z,-2.40
2018-03-20T06:08:52.241Z,-2.40
2018-03-20T06:09:54.762Z,-2.30
2018-03-20T06:10:58.049Z,-2.40
2018-03-20T06:12:00.578Z,-2.40
2018-03-20T06:13:03.096Z,-2.30
2018-03-20T06:14:05.669Z,-2.40
2018-03-20T06:15:08.192Z,-2.40
2018-03-20T06:16:11.496Z,-2.30
2018-03-20T06:17:14.802Z,-2.20
2018-03-20T06:18:17.325Z,-2.30
2018-03-20T06:19:19.883Z,-2.20
2018-03-20T06:20:22.411Z,-2.20
2018-03-20T06:21:24.950Z,-2.20
2018-03-20T06:22:27.509Z,-2.20
2018-03-20T06:23:30.797Z,-2.20
2018-03-20T06:24:33.358Z,-2.20
2018-03-20T06:25:36.657Z,-2.10
2018-03-20T06:26:39.181Z,-2.10
2018-03-20T06:27:41.712Z,-2.20
2018-03-20T06:28:44.243Z,-2.10
2018-03-20T06:29:47.582Z,-2.10
2018-03-20T06:30:50.118Z,-2.10
2018-03-20T06:31:52.659Z,-2.10
2018-03-20T06:32:55.954Z,-2.20
2018-03-20T06:33:58.485Z,-2.20
2018-03-20T06:35:01.882Z,-2.20
2018-03-20T06:36:05.181Z,-2.30
2018-03-20T06:37:07.718Z,-2.30
2018-03-20T06:38:10.253Z,-2.30
2018-03-20T06:39:12.797Z,-2.20
2018-03-20T06:40:15.361Z,-2.20
2018-03-20T06:41:17.885Z,-2.20
2018-03-20T06:42:20.410Z,-2.20
2018-03-20T06:43:22.953Z,-2.20
2018-03-20T06:44:25.511Z,-2.10
2018-03-20T06:45:28.833Z,-2.00
2018-03-20T06:46:31.370Z,-2.00
2018-03-20T06:47:33.914Z,-1.90
2018-03-20T06:48:37.244Z,-1.90
2018-03-20T06:49:39.764Z,-1.90
2018-03-20T06:50:43.065Z,-1.90
2018-03-20T06:51:45.629Z,-1.90
2018-03-20T06:52:48.165Z,-1.80
2018-03-20T06:53:50.701Z,-1.80
2018-03-20T06:54:53.237Z,-1.80
2018-03-20T06:55:55.765Z,-1.80
2018-03-20T06:56:58.325Z,-1.80
2018-03-20T06:58:00.845Z,-1.80
2018-03-20T06:59:03.506Z,-1.80
2018-03-20T07:00:06.033Z,-1.80
2018-03-20T07:01:08.573Z,-1.80
2018-03-20T07:02:11.130Z,-1.80
2018-03-20T07:03:13.670Z,-1.80
2018-03-20T07:04:16.232Z,-1.80
2018-03-20T07:05:18.757Z,-1.70
2018-03-20T07:06:21.294Z,-1.70
2018-03-20T07:07:23.818Z,-1.60
2018-03-20T07:08:27.150Z,-1.50
2018-03-20T07:09:29.681Z,-1.60
2018-03-20T07:10:32.220Z,-1.50
2018-03-20T07:11:34.745Z,-1.50
2018-03-20T07:12:37.269Z,-1.50
2018-03-20T07:13:40.598Z,-1.50
2018-03-20T07:14:43.330Z,-1.50
2018-03-20T07:15:45.873Z,-1.50
2018-03-20T07:16:48.442Z,-1.50
2018-03-20T07:17:50.966Z,-1.40
2018-03-20T07:18:53.510Z,-1.40
2018-03-20T07:19:56.033Z,-1.40
2018-03-20T07:20:58.569Z,-1.40
2018-03-20T07:22:01.142Z,-1.50
2018-03-20T07:23:04.460Z,-1.40
2018-03-20T07:24:07.765Z,-1.40
2018-03-20T07:25:10.297Z,-1.40
2018-03-20T07:26:12.825Z,-1.40
2018-03-20T07:27:15.483Z,-1.40
2018-03-20T07:28:18.038Z,-1.30
2018-03-20T07:29:21.313Z,-1.20
2018-03-20T07:30:24.618Z,-1.20
2018-03-20T07:31:27.141Z,-1.20
2018-03-20T07:32:29.697Z,-1.20
2018-03-20T07:33:32.283Z,-1.20
2018-03-20T07:34:35.576Z,-1.30
2018-03-20T07:35:38.886Z,-1.30
2018-03-20T07:36:41.425Z,-1.30
2018-03-20T07:37:44.769Z,-1.30
2018-03-20T07:38:47.299Z,-1.30
2018-03-20T07:39:49.821Z,-1.30
2018-03-20T07:40:52.345Z,-1.30
2018-03-20T07:41:54.891Z,-1.30
2018-03-20T07:42:57.450Z,-1.30
2018-03-20T07:43:59.974Z,-1.30
2018-03-20T07:45:02.509Z,-1.30
2018-03-20T07:46:05.040Z,-1.30
2018-03-20T07:47:08.330Z,-1.30
2018-03-20T07:48:10.899Z,-1.30
2018-03-20T07:49:13.469Z,-1.30
2018-03-20T07:50:16.006Z,-1.20
2018-03-20T07:51:18.542Z,-1.20
2018-03-20T07:52:21.056Z,-1.20
2018-03-20T07:53:24.353Z,-1.20
2018-03-20T07:54:26.916Z,-1.20
2018-03-20T07:55:29.451Z,-1.20
2018-03-20T07:56:31.981Z,-1.30
2018-03-20T07:57:34.504Z,-1.30
2018-03-20T07:58:37.810Z,-1.30
2018-03-20T07:59:40.402Z,-1.30
2018-03-20T08:00:42.942Z,-1.20
2018-03-20T08:01:45.464Z,-1.30
2018-03-20T08:02:48.003Z,-1.30
2018-03-20T08:03:50.534Z,-1.30
2018-03-20T08:04:53.103Z,-1.30
2018-03-20T08:05:55.631Z,-1.20
2018-03-20T08:06:58.160Z,-1.10
2018-03-20T08:08:00.686Z,-1.10
2018-03-20T08:09:03.973Z,-1.10
2018-03-20T08:10:06.542Z,-1.10
2018-03-20T08:11:09.074Z,-1.10
2018-03-20T08:12:11.597Z,-1.00
2018-03-20T08:13:14.128Z,-1.00
2018-03-20T08:14:16.668Z,-1.00
2018-03-20T08:15:19.229Z,-0.90
2018-03-20T08:16:21.752Z,-0.80
2018-03-20T08:17:24.277Z,-0.80
2018-03-20T08:18:26.842Z,-0.80
2018-03-20T08:19:29.402Z,-0.90
2018-03-20T08:20:31.913Z,-0.90
2018-03-20T08:21:34.477Z,-0.80
2018-03-20T08:22:37.009Z,-0.80
2018-03-20T08:23:39.537Z,-0.80
2018-03-20T08:24:42.078Z,-0.80
2018-03-20T08:25:44.645Z,-0.80
2018-03-20T08:26:47.182Z,-0.70
2018-03-20T08:27:50.476Z,-0.70
2018-03-20T08:28:53.762Z,-0.70
2018-03-20T08:29:57.049Z,-0.70
2018-03-20T08:30:59.638Z,-0.70
2018-03-20T08:32:02.166Z,-0.60
2018-03-20T08:33:05.452Z,-0.60
2018-03-20T08:34:08.747Z,-0.60
2018-03-20T08:35:11.282Z,-0.60
2018-03-20T08:36:13.850Z,-0.60
2018-03-20T08:37:16.381Z,-0.60
2018-03-20T08:38:18.910Z,-0.50
2018-03-20T08:39:22.236Z,-0.50
2018-03-20T08:40:24.758Z,-0.50
2018-03-20T08:41:28.086Z,-0.50
2018-03-20T08:42:30.617Z,-0.50
2018-03-20T08:43:33.958Z,-0.50
2018-03-20T08:44:36.483Z,-0.50
2018-03-20T08:45:39.008Z,-0.50
2018-03-20T08:46:41.546Z,-0.50
2018-03-20T08:47:44.085Z,-0.50
2018-03-20T08:48:46.653Z,-0.50
2018-03-20T08:49:49.183Z,-0.60
2018-03-20T08:50:52.499Z,-0.50
2018-03-20T08:51:55.014Z,-0.50
2018-03-20T08:52:57.542Z,-0.50
2018-03-20T08:54:00.101Z,-0.40
2018-03-20T08:55:02.670Z,-0.40
2018-03-20T08:56:05.190Z,-0.40
2018-03-20T08:57:08.501Z,-0.40
2018-03-20T08:58:11.028Z,-0.40
2018-03-20T08:59:13.549Z,-0.30
2018-03-20T09:00:16.209Z,-0.30
2018-03-20T09:01:18.737Z,-0.40
2018-03-20T09:02:21.263Z,-0.30
2018-03-20T09:03:23.793Z,-0.30
2018-03-20T09:04:26.329Z,-0.30
2018-03-20T09:05:28.901Z,-0.40
2018-03-20T09:06:31.425Z,-0.40
2018-03-20T09:07:33.957Z,-0.40
2018-03-20T09:08:36.677Z,-0.30
2018-03-20T09:09:39.345Z,-0.30
2018-03-20T09:10:41.874Z,-0.40
2018-03-20T09:11:44.450Z,-0.40
2018-03-20T09:12:46.972Z,-0.40
2018-03-20T09:13:49.547Z,-0.40
2018-03-20T09:14:52.837Z,-0.40
2018-03-20T09:15:56.129Z,-0.30
2018-03-20T09:16:59.425Z,-0.30
2018-03-20T09:18:02.007Z,-0.30
2018-03-20T09:19:04.528Z,-0.30
2018-03-20T09:20:07.074Z,-0.20
2018-03-20T09:21:09.597Z,-0.20
2018-03-20T09:22:12.140Z,-0.20
2018-03-20T09:23:15.474Z,-0.30
2018-03-20T09:24:17.999Z,-0.30
2018-03-20T09:25:21.298Z,-0.20
2018-03-20T09:26:23.829Z,-0.20
2018-03-20T09:27:26.358Z,-0.20
2018-03-20T09:28:28.920Z,-0.20
2018-03-20T09:29:31.445Z,-0.20
2018-03-20T09:30:33.984Z,-0.20
2018-03-20T09:31:36.504Z,-0.20
2018-03-20T09:32:39.036Z,-0.20
2018-03-20T09:33:42.352Z,-0.20
2018-03-20T09:34:44.874Z,-0.20
2018-03-20T09:35:47.396Z,-0.20
2018-03-20T09:36:49.916Z,-0.20
2018-03-20T09:37:53.249Z,-0.30
2018-03-20T09:38:55.809Z,-0.30
2018-03-20T09:39:58.350Z,-0.20
2018-03-20T09:41:00.907Z,-0.20
2018-03-20T09:43:13.197Z,-0.20
2018-03-20T09:44:16.481Z,-0.20
2018-03-20T09:45:19.769Z,-0.20
2018-03-20T09:46:23.204Z,-0.10
2018-03-20T09:47:25.729Z,-0.10
2018-03-20T09:48:29.018Z,-0.10
2018-03-20T09:49:32.300Z,0.00
2018-03-20T09:50:34.818Z,0.00
2018-03-20T09:51:37.377Z,0.00
2018-03-20T09:52:39.902Z,0.00
2018-03-20T09:53:42.465Z,0.00
2018-03-20T09:54:45.759Z,0.10
2018-03-20T09:55:48.282Z,0.10
2018-03-20T09:56:50.797Z,0.10
2018-03-20T09:57:53.338Z,0.10
2018-03-20T09:58:56.658Z,0.20
2018-03-20T09:59:59.177Z,0.20
2018-03-20T10:01:01.693Z,0.30
2018-03-20T10:02:04.256Z,0.40
2018-03-20T10:03:06.773Z,0.40
2018-03-20T10:04:10.068Z,0.40
2018-03-20T10:05:12.622Z,0.40
2018-03-20T10:06:15.918Z,0.40
2018-03-20T10:07:19.232Z,0.50
2018-03-20T10:08:21.766Z,0.50
2018-03-20T10:09:24.315Z,0.50
2018-03-20T10:10:26.890Z,0.40
2018-03-20T10:11:29.417Z,0.30
2018-03-20T10:12:31.940Z,0.30
2018-03-20T10:13:35.236Z,0.30
2018-03-20T10:14:37.765Z,0.30
2018-03-20T10:15:40.317Z,0.40
2018-03-20T10:16:42.838Z,0.40
2018-03-20T10:17:45.366Z,0.50
2018-03-20T10:18:47.935Z,0.50
2018-03-20T10:19:50.469Z,0.60
2018-03-20T10:20:52.993Z,0.50
2018-03-20T10:21:56.311Z,0.60
2018-03-20T10:22:58.886Z,0.60
2018-03-20T10:24:01.415Z,0.60
2018-03-20T10:25:03.984Z,0.60
2018-03-20T10:26:07.245Z,0.60
2018-03-20T10:27:10.538Z,0.70
2018-03-20T10:28:13.100Z,0.60
2018-03-20T10:29:15.640Z,0.70
2018-03-20T10:30:18.193Z,0.70
2018-03-20T10:31:20.724Z,0.80
2018-03-20T10:32:23.242Z,0.80
2018-03-20T10:33:25.767Z,0.90
2018-03-20T10:34:28.289Z,1.00
2018-03-20T10:35:31.609Z,1.20
2018-03-20T10:36:34.126Z,1.20
2018-03-20T10:37:36.662Z,1.20
2018-03-20T10:38:39.214Z,1.30
2018-03-20T10:39:41.738Z,1.40
2018-03-20T10:40:45.053Z,1.50
2018-03-20T10:41:47.568Z,1.50
2018-03-20T10:42:50.084Z,1.50
2018-03-20T10:43:52.790Z,1.60
2018-03-20T10:44:55.322Z,1.60
2018-03-20T10:45:57.838Z,1.60
2018-03-20T10:47:00.357Z,1.70
2018-03-20T10:48:02.877Z,1.70
2018-03-20T10:49:05.431Z,1.70
2018-03-20T10:50:07.941Z,1.70
2018-03-20T10:51:10.480Z,1.70
2018-03-20T10:52:13.761Z,1.80
2018-03-20T10:53:16.278Z,1.80
2018-03-20T10:54:18.837Z,1.90
2018-03-20T10:55:21.429Z,1.80
2018-03-20T10:56:23.941Z,1.80
2018-03-20T10:57:27.227Z,1.80
2018-03-20T10:58:30.520Z,1.80
2018-03-20T10:59:33.064Z,1.80
2018-03-20T11:00:38.601Z,1.80
2018-03-20T11:01:46.061Z,1.80
2018-03-20T11:02:52.613Z,1.80
2018-03-20T11:03:55.133Z,1.80
2018-03-20T11:04:57.659Z,1.90
2018-03-20T11:06:00.176Z,1.90
2018-03-20T11:07:02.690Z,1.90
2018-03-20T11:08:05.237Z,1.90
2018-03-20T11:09:07.762Z,1.80
2018-03-20T11:10:10.290Z,1.80
2018-03-20T11:11:12.802Z,1.80
2018-03-20T11:12:15.371Z,1.70
2018-03-20T11:13:17.885Z,1.60
2018-03-20T11:14:20.393Z,1.60
2018-03-20T11:15:22.920Z,1.60
2018-03-20T11:16:25.436Z,1.70
2018-03-20T11:17:27.994Z,1.70
2018-03-20T11:18:30.557Z,1.70
2018-03-20T11:19:33.072Z,1.70
2018-03-20T11:20:35.597Z,1.70
2018-03-20T11:21:38.112Z,1.70
2018-03-20T11:22:40.956Z,1.70
2018-03-20T11:23:43.515Z,1.70
2018-03-20T11:24:46.072Z,1.60
2018-03-20T11:25:48.584Z,1.60
2018-03-20T11:26:51.108Z,1.60
2018-03-20T11:27:53.621Z,1.70
2018-03-20T11:28:56.145Z,1.70
2018-03-20T11:29:58.714Z,1.60
2018-03-20T11:31:01.262Z,1.60
2018-03-20T11:32:03.776Z,1.60
2018-03-20T11:33:06.285Z,1.60
2018-03-20T11:34:08.799Z,1.60
2018-03-20T11:35:11.333Z,1.70
2018-03-20T11:36:13.883Z,1.70
2018-03-20T11:37:16.402Z,1.60
2018-03-20T11:38:18.935Z,1.60
2018-03-20T11:39:21.458Z,1.60
2018-03-20T11:40:24.753Z,1.60
2018-03-20T11:41:27.308Z,1.60
2018-03-20T11:42:29.819Z,1.60
2018-03-20T11:43:32.357Z,1.70
2018-03-20T11:44:35.676Z,1.70
2018-03-20T11:45:38.190Z,1.70
2018-03-20T11:46:41.476Z,1.70
2018-03-20T11:47:44.753Z,1.60
2018-03-20T11:48:47.313Z,1.60
2018-03-20T11:49:49.834Z,1.60
2018-03-20T11:50:52.352Z,1.60
2018-03-20T11:51:54.871Z,1.60
2018-03-20T11:52:57.433Z,1.60
2018-03-20T11:53:59.957Z,1.60
2018-03-20T11:55:03.365Z,1.60
2018-03-20T11:56:05.873Z,1.60
2018-03-20T11:57:08.388Z,1.60
2018-03-20T11:58:11.710Z,1.60
2018-03-20T11:59:14.237Z,1.60
2018-03-20T12:00:16.799Z,1.60
2018-03-20T12:01:20.081Z,1.60
2018-03-20T12:02:23.365Z,1.50
2018-03-20T12:03:26.654Z,1.60
2018-03-20T12:04:29.938Z,1.60
2018-03-20T12:05:33.257Z,1.60
2018-03-20T12:06:35.766Z,1.60
2018-03-20T12:07:50.117Z,1.60
2018-03-20T12:08:53.414Z,1.60
2018-03-20T12:09:56.700Z,1.60
2018-03-20T12:11:00.018Z,1.60
2018-03-20T12:12:02.537Z,1.60
2018-03-20T12:13:05.835Z,1.70
2018-03-20T12:14:08.363Z,1.70
2018-03-20T12:15:10.884Z,1.70
2018-03-20T12:16:13.444Z,1.70
2018-03-20T12:17:15.963Z,1.70
2018-03-20T12:18:18.472Z,1.70
2018-03-20T12:19:20.994Z,1.70
2018-03-20T12:20:23.512Z,1.70
2018-03-20T12:21:26.053Z,1.70
2018-03-20T12:22:29.336Z,1.80
2018-03-20T12:23:32.621Z,1.80
2018-03-20T12:24:35.913Z,1.90
2018-03-20T12:25:38.430Z,1.90
2018-03-20T12:26:40.977Z,1.90
2018-03-20T12:27:43.495Z,1.90
2018-03-20T12:28:46.778Z,2.00
2018-03-20T12:29:49.298Z,2.00
2018-03-20T12:30:51.838Z,2.10
2018-03-20T12:31:54.404Z,2.10
2018-03-20T12:32:56.933Z,2.10
2018-03-20T12:33:59.449Z,2.10
2018-03-20T12:35:01.961Z,2.20
2018-03-20T12:36:04.497Z,2.20
2018-03-20T12:37:07.049Z,2.20
2018-03-20T12:38:09.561Z,2.30
2018-03-20T12:39:12.089Z,2.30
2018-03-20T12:40:14.607Z,2.30
2018-03-20T12:41:17.896Z,2.40
2018-03-20T12:42:21.217Z,2.50
2018-03-20T12:43:23.732Z,2.50
2018-03-20T12:44:26.249Z,2.50
2018-03-20T12:45:28.834Z,2.60
2018-03-20T12:46:31.361Z,2.70
2018-03-20T12:47:33.870Z,2.70
2018-03-20T12:48:36.412Z,2.80
2018-03-20T12:49:38.925Z,2.80
2018-03-20T12:50:41.473Z,2.90
2018-03-20T12:51:43.985Z,3.00
2018-03-20T12:52:46.530Z,3.00
2018-03-20T12:53:49.813Z,3.10
2018-03-20T12:54:53.109Z,3.20
2018-03-20T12:55:56.437Z,3.20
2018-03-20T12:56:58.952Z,3.20
2018-03-20T12:58:02.228Z,3.30
2018-03-20T12:59:05.518Z,3.40
2018-03-20T13:00:08.794Z,3.40
2018-03-20T13:01:11.355Z,3.40
2018-03-20T13:02:13.884Z,3.60
2018-03-20T13:03:16.406Z,3.80
2018-03-20T13:04:19.682Z,4.10
2018-03-20T13:05:22.999Z,4.20
2018-03-20T13:06:25.545Z,4.10
2018-03-20T13:07:28.834Z,4.10
2018-03-20T13:08:31.390Z,4.10
2018-03-20T13:09:34.722Z,4.20
2018-03-20T13:10:37.251Z,4.20
2018-03-20T13:11:39.769Z,4.40
2018-03-20T13:12:43.029Z,4.40
2018-03-20T13:13:45.609Z,4.50
2018-03-20T13:14:48.134Z,4.60
2018-03-20T13:15:50.679Z,4.70
2018-03-20T13:16:53.965Z,4.90
2018-03-20T13:17:57.305Z,4.60
2018-03-20T13:18:59.826Z,4.60
2018-03-20T13:20:03.150Z,4.80
2018-03-20T13:21:05.673Z,4.70
2018-03-20T13:22:08.961Z,4.70
2018-03-20T13:23:12.261Z,4.70
2018-03-20T13:24:14.829Z,4.70
2018-03-20T13:25:17.347Z,4.90
2018-03-20T13:26:19.853Z,5.10
2018-03-20T13:27:22.379Z,5.30
2018-03-20T13:28:24.889Z,5.40
2018-03-20T13:29:27.475Z,5.40
2018-03-20T13:30:29.981Z,5.40
2018-03-20T13:31:32.511Z,5.10
2018-03-20T13:32:35.025Z,5.10
2018-03-20T13:33:37.552Z,5.30
2018-03-20T13:34:40.167Z,5.40
2018-03-20T13:35:43.458Z,5.70
2018-03-20T13:36:46.865Z,6.00
2018-03-20T13:37:49.387Z,6.00
2018-03-20T13:38:51.918Z,6.20